createdAt,value
2017-02-18T10:31:07.145Z,9.61
2017-02-18T10:31:48.675Z,8.69
2017-02-18T10:32:29.143Z,8.12
2017-02-18T10:33:09.735Z,7.82
2017-02-18T10:33:50.355Z,7.47
2017-02-18T10:34:30.950Z,7.33
2017-02-18T10:35:11.580Z,7.23
2017-02-18T10:35:52.204Z,7.17
2017-02-18T10:36:33.038Z,7.15
2017-02-18T10:37:13.497Z,7.17
2017-02-18T10:37:54.092Z,7
2017-02-18T10:38:34.710Z,6.77
2017-02-18T10:39:15.696Z,6.84
2017-02-18T10:39:56.461Z,6.89
2017-02-18T10:40:37.389Z,6.96
2017-02-18T10:41:18.460Z,7.03
2017-02-18T10:41:59.137Z,7.1
2017-02-18T10:42:39.771Z,7.13
2017-02-18T10:43:20.391Z,7.05
2017-02-18T10:44:00.995Z,7.14
2017-02-18T10:44:41.608Z,7.06
2017-02-18T10:45:22.353Z,7.2
2017-02-18T10:46:03.005Z,7.15
2017-02-18T10:46:43.650Z,7.18
2017-02-18T10:47:24.346Z,7.28
2017-02-18T10:48:05.211Z,7.32
2017-02-18T10:48:45.872Z,7.15
2017-02-18T10:49:26.487Z,7.17
2017-02-18T10:50:07.097Z,7.14
2017-02-18T10:50:47.703Z,6.99
2017-02-18T10:51:29.081Z,6.84
2017-02-18T10:52:09.776Z,6.92
2017-02-18T10:52:50.418Z,6.99
2017-02-18T10:53:31.031Z,6.79
2017-02-18T10:54:11.668Z,6.69
2017-02-18T10:54:52.285Z,6.74
2017-02-18T10:55:32.895Z,6.72
2017-02-18T10:56:13.573Z,6.85
2017-02-18T10:56:54.184Z,6.92
2017-02-18T10:57:34.802Z,7.02
2017-02-18T10:58:15.447Z,6.95
2017-02-18T10:58:56.090Z,6.96
2017-02-18T10:59:36.712Z,7.06
2017-02-18T11:00:17.366Z,6.95
2017-02-18T11:00:57.976Z,6.92
2017-02-18T11:01:38.811Z,6.89
2017-02-18T11:02:19.455Z,6.88
2017-02-18T11:03:00.112Z,7.02
2017-02-18T11:03:40.800Z,6.92
2017-02-18T11:04:21.417Z,6.88
2017-02-18T11:05:02.017Z,6.99
2017-02-18T11:05:42.631Z,7.1
2017-02-18T11:06:23.253Z,7.2
2017-02-18T11:07:03.838Z,7.13
2017-02-18T11:07:44.460Z,7.14
2017-02-18T11:08:25.068Z,6.96
2017-02-18T11:09:05.733Z,6.89
2017-02-18T11:09:46.297Z,6.69
2017-02-18T11:10:26.908Z,6.74
2017-02-18T11:11:07.505Z,6.69
2017-02-18T11:11:48.137Z,6.7
2017-02-18T11:12:28.740Z,6.75
2017-02-18T11:13:09.353Z,6.82
2017-02-18T11:13:49.943Z,6.88
2017-02-18T11:14:30.573Z,6.87
2017-02-18T11:15:11.671Z,6.89
2017-02-18T11:15:52.594Z,6.88
2017-02-18T11:16:37.566Z,6.97
2017-02-18T11:17:18.177Z,7.02
2017-02-18T11:18:01.138Z,7.07
2017-02-18T11:18:41.774Z,7.1
2017-02-18T11:19:23.213Z,7.05
2017-02-18T11:20:05.009Z,6.96
2017-02-18T11:20:52.243Z,6.97
2017-02-18T11:21:32.932Z,7
2017-02-18T11:22:13.543Z,6.97
2017-02-18T11:22:54.155Z,6.92
2017-02-18T11:23:34.753Z,7
2017-02-18T11:24:15.361Z,7.05
2017-02-18T11:24:55.980Z,7.05
2017-02-18T11:25:36.581Z,7.03
2017-02-18T11:26:17.203Z,7.03
2017-02-18T11:26:57.789Z,7
2017-02-18T11:27:38.406Z,6.78
2017-02-18T11:28:19.001Z,6.75
2017-02-18T11:28:59.627Z,6.89
2017-02-18T11:29:40.230Z,6.89
2017-02-18T11:30:20.839Z,6.88
2017-02-18T11:31:01.456Z,6.88
2017-02-18T11:31:42.060Z,6.52
2017-02-18T11:32:22.682Z,6.51
2017-02-18T11:33:03.299Z,6.63
2017-02-18T11:33:43.891Z,6.6
2017-02-18T11:34:24.513Z,6.49
2017-02-18T11:35:05.139Z,6.31
2017-02-18T11:35:45.746Z,6.38
2017-02-18T11:36:26.337Z,6.28
2017-02-18T11:37:06.923Z,6.3
2017-02-18T11:37:47.516Z,6.42
2017-02-18T11:38:28.085Z,6.45
2017-02-18T11:39:08.679Z,6.57
2017-02-18T11:39:49.252Z,6.46
2017-02-18T11:40:29.862Z,6.66
2017-02-18T11:41:10.460Z,6.72
2017-02-18T11:41:51.060Z,6.72
2017-02-18T11:42:31.654Z,6.57
2017-02-18T11:43:12.266Z,6.74
2017-02-18T11:43:52.855Z,6.7
2017-02-18T11:44:33.474Z,6.89
2017-02-18T11:45:14.061Z,6.7
2017-02-18T11:45:54.669Z,6.85
2017-02-18T11:46:35.271Z,6.85
2017-02-18T11:47:15.865Z,6.89
2017-02-18T11:47:56.478Z,6.81
2017-02-18T11:48:37.082Z,6.87
2017-02-18T11:49:17.683Z,7
2017-02-18T11:49:58.294Z,6.92
2017-02-18T11:50:38.917Z,6.88
2017-02-18T11:51:19.506Z,6.99
2017-02-18T11:52:00.137Z,6.79
2017-02-18T11:52:40.765Z,6.62
2017-02-18T11:53:21.369Z,6.72
2017-02-18T11:54:01.995Z,6.57
2017-02-18T11:54:42.637Z,6.77
2017-02-18T11:55:23.270Z,6.79
2017-02-18T11:56:04.067Z,6.89
2017-02-18T11:56:44.660Z,6.84
2017-02-18T11:57:25.266Z,6.87
2017-02-18T11:58:05.862Z,6.7
2017-02-18T11:58:46.469Z,6.67
2017-02-18T11:59:27.091Z,6.77
2017-02-18T12:00:07.747Z,6.92
2017-02-18T12:00:48.370Z,6.81
2017-02-18T12:01:29.023Z,6.84
2017-02-18T12:02:09.675Z,6.95
2017-02-18T12:02:50.305Z,6.99
2017-02-18T12:03:30.923Z,6.93
2017-02-18T12:04:11.536Z,6.99
2017-02-18T12:04:52.155Z,6.72
2017-02-18T12:05:32.760Z,6.78
2017-02-18T12:06:13.380Z,6.69
2017-02-18T12:06:54.031Z,6.7
2017-02-18T12:07:34.639Z,6.79
2017-02-18T12:08:15.272Z,6.84
2017-02-18T12:08:55.880Z,6.88
2017-02-18T12:09:36.503Z,7
2017-02-18T12:10:17.140Z,7.03
2017-02-18T12:10:57.706Z,6.96
2017-02-18T12:11:38.344Z,6.96
2017-02-18T12:12:18.976Z,7.05
2017-02-18T12:12:59.561Z,6.88
2017-02-18T12:13:40.176Z,6.89
2017-02-18T12:14:20.807Z,6.82
2017-02-18T12:15:01.422Z,6.84
2017-02-18T12:15:42.057Z,6.7
2017-02-18T12:16:22.683Z,6.62
2017-02-18T12:17:03.331Z,6.7
2017-02-18T12:17:43.980Z,6.82
2017-02-18T12:18:24.588Z,6.82
2017-02-18T12:19:05.208Z,6.82
2017-02-18T12:19:45.788Z,6.72
2017-02-18T12:20:26.402Z,6.72
2017-02-18T12:21:06.983Z,6.72
2017-02-18T12:21:47.599Z,6.77
2017-02-18T12:22:28.195Z,6.88
2017-02-18T12:23:08.782Z,6.93
2017-02-18T12:23:49.441Z,6.77
2017-02-18T12:24:30.011Z,6.79
2017-02-18T12:25:10.602Z,6.78
2017-02-18T12:25:51.213Z,6.87
2017-02-18T12:26:31.781Z,6.74
2017-02-18T12:27:12.379Z,6.81
2017-02-18T12:27:52.969Z,6.46
2017-02-18T12:28:33.573Z,6.51
2017-02-18T12:29:14.146Z,6.63
2017-02-18T12:29:54.735Z,6.64
2017-02-18T12:30:35.316Z,6.57
2017-02-18T12:31:15.901Z,6.62
2017-02-18T12:31:56.490Z,6.79
2017-02-18T12:32:37.074Z,6.72
2017-02-18T12:33:17.685Z,6.87
2017-02-18T12:33:58.273Z,6.82
2017-02-18T12:34:38.867Z,6.82
2017-02-18T12:35:19.466Z,6.89
2017-02-18T12:36:00.050Z,6.85
2017-02-18T12:36:40.617Z,6.93
2017-02-18T12:37:21.189Z,6.97
2017-02-18T12:38:01.779Z,6.85
2017-02-18T12:38:42.365Z,6.96
2017-02-18T12:39:22.954Z,6.85
2017-02-18T12:40:03.535Z,6.85
2017-02-18T12:40:44.125Z,6.75
2017-02-18T12:41:24.775Z,6.63
2017-02-18T12:42:05.353Z,6.67
2017-02-18T12:42:45.922Z,6.6
2017-02-18T12:43:26.514Z,6.62
2017-02-18T12:44:07.113Z,6.62
2017-02-18T12:44:47.724Z,6.7
2017-02-18T12:45:28.413Z,6.75
2017-02-18T12:46:08.997Z,6.92
2017-02-18T12:46:49.613Z,6.88
2017-02-18T12:47:30.256Z,6.89
2017-02-18T12:48:10.821Z,6.92
2017-02-18T12:48:51.429Z,6.6
2017-02-18T12:49:32.013Z,6.66
2017-02-18T12:50:12.595Z,6.69
2017-02-18T12:50:53.183Z,6.75
2017-02-18T12:51:33.789Z,6.74
2017-02-18T12:52:14.370Z,6.92
2017-02-18T12:52:54.995Z,6.89
2017-02-18T12:53:35.582Z,6.93
2017-02-18T12:54:16.165Z,6.88
2017-02-18T12:54:56.767Z,6.92
2017-02-18T12:55:37.353Z,6.96
2017-02-18T12:56:17.939Z,7
2017-02-18T12:56:58.547Z,7
2017-02-18T12:57:39.142Z,6.88
2017-02-18T12:58:19.765Z,6.84
2017-02-18T12:59:00.354Z,6.72
2017-02-18T12:59:40.939Z,6.64
2017-02-18T13:00:21.515Z,6.59
2017-02-18T13:01:02.116Z,6.63
2017-02-18T13:01:42.693Z,6.57
2017-02-18T13:02:23.281Z,6.72
2017-02-18T13:03:03.875Z,6.74
2017-02-18T13:03:44.467Z,6.81
2017-02-18T13:04:25.058Z,6.77
2017-02-18T13:05:05.650Z,6.93
2017-02-18T13:05:46.239Z,6.85
2017-02-18T13:06:26.820Z,6.92
2017-02-18T13:07:07.404Z,6.88
2017-02-18T13:07:47.988Z,6.87
2017-02-18T13:08:28.588Z,6.88
2017-02-18T13:09:10.148Z,6.85
2017-02-18T13:09:52.305Z,6.79
2017-02-18T13:10:35.028Z,6.78
2017-02-18T13:11:15.597Z,6.72
2017-02-18T13:11:56.194Z,6.72
2017-02-18T13:12:36.850Z,6.85
2017-02-18T13:13:17.461Z,6.77
2017-02-18T13:13:58.052Z,6.59
2017-02-18T13:14:38.679Z,6.7
2017-02-18T13:15:19.250Z,6.57
2017-02-18T13:15:59.868Z,6.59
2017-02-18T13:16:40.458Z,6.64
2017-02-18T13:17:21.063Z,6.74
2017-02-18T13:18:01.703Z,6.81
2017-02-18T13:18:42.323Z,6.88
2017-02-18T13:19:22.939Z,6.69
2017-02-18T13:20:03.540Z,6.7
2017-02-18T13:20:44.135Z,6.72
